sensor_id;sensor_type;location;lat;lon;timestamp;P1;durP1;ratioP1;P2;durP2;ratioP2
21060;SDS011;10689;50.836;3.266;2023-04-03T00:07:43;18.27;;;11.97;;
21060;SDS011;10689;50.836;3.266;2023-04-03T00:10:35;19.53;;;14.33;;
21060;SDS011;10689;50.836;3.266;2023-04-03T00:23:04;18.10;;;13.37;;
21060;SDS011;10689;50.836;3.266;2023-04-03T00:26:06;18.33;;;13.13;;
21060;SDS011;10689;50.836;3.266;2023-04-03T00:32:30;19.40;;;13.97;;
21060;SDS011;10689;50.836;3.266;2023-04-03T00:35:57;17.70;;;12.17;;
21060;SDS011;10689;50.836;3.266;2023-04-03T00:39:04;16.57;;;12.40;;
21060;SDS011;10689;50.836;3.266;2023-04-03T00:42:00;20.13;;;10.33;;
21060;SDS011;10689;50.836;3.266;2023-04-03T00:48:11;17.43;;;11.90;;
21060;SDS011;10689;50.836;3.266;2023-04-03T01:22:24;17.50;;;11.43;;
21060;SDS011;10689;50.836;3.266;2023-04-03T01:28:03;16.07;;;11.30;;
21060;SDS011;10689;50.836;3.266;2023-04-03T01:35:08;17.87;;;10.47;;
21060;SDS011;10689;50.836;3.266;2023-04-03T01:48:03;15.13;;;11.00;;
21060;SDS011;10689;50.836;3.266;2023-04-03T01:51:21;16.23;;;10.77;;
21060;SDS011;10689;50.836;3.266;2023-04-03T01:53:56;15.10;;;10.43;;
21060;SDS011;10689;50.836;3.266;2023-04-03T01:57:02;14.43;;;10.37;;
21060;SDS011;10689;50.836;3.266;2023-04-03T01:59:38;15.50;;;11.00;;
21060;SDS011;10689;50.836;3.266;2023-04-03T02:02:38;14.30;;;10.63;;
21060;SDS011;10689;50.836;3.266;2023-04-03T02:05:45;12.80;;;9.47;;
21060;SDS011;10689;50.836;3.266;2023-04-03T02:08:46;12.37;;;9.57;;
21060;SDS011;10689;50.836;3.266;2023-04-03T02:14:38;12.03;;;8.50;;
21060;SDS011;10689;50.836;3.266;2023-04-03T02:17:10;13.80;;;9.90;;
21060;SDS011;10689;50.836;3.266;2023-04-03T02:22:41;11.43;;;9.20;;
21060;SDS011;10689;50.836;3.266;2023-04-03T02:28:54;12.30;;;8.93;;
21060;SDS011;10689;50.836;3.266;2023-04-03T02:31:42;12.77;;;8.57;;
21060;SDS011;10689;50.836;3.266;2023-04-03T02:37:29;14.03;;;8.33;;
21060;SDS011;10689;50.836;3.266;2023-04-03T02:40:26;12.07;;;8.43;;
21060;SDS011;10689;50.836;3.266;2023-04-03T02:42:57;9.93;;;7.77;;
21060;SDS011;10689;50.836;3.266;2023-04-03T02:45:45;13.43;;;8.03;;
21060;SDS011;10689;50.836;3.266;2023-04-03T02:52:26;9.90;;;7.67;;
21060;SDS011;10689;50.836;3.266;2023-04-03T02:54:55;10.53;;;7.40;;
21060;SDS011;10689;50.836;3.266;2023-04-03T03:01:23;11.70;;;8.23;;
21060;SDS011;10689;50.836;3.266;2023-04-03T03:06:58;10.00;;;8.30;;
21060;SDS011;10689;50.836;3.266;2023-04-03T03:09:39;10.77;;;8.80;;
21060;SDS011;10689;50.836;3.266;2023-04-03T03:12:10;11.10;;;8.27;;
21060;SDS011;10689;50.836;3.266;2023-04-03T03:24:30;13.83;;;8.70;;
21060;SDS011;10689;50.836;3.266;2023-04-03T03:40:33;14.23;;;9.23;;
21060;SDS011;10689;50.836;3.266;2023-04-03T03:46:27;11.20;;;8.30;;
21060;SDS011;10689;50.836;3.266;2023-04-03T03:49:09;10.03;;;7.83;;
21060;SDS011;10689;50.836;3.266;2023-04-03T03:52:04;11.50;;;8.37;;
21060;SDS011;10689;50.836;3.266;2023-04-03T03:57:36;15.97;;;8.47;;
21060;SDS011;10689;50.836;3.266;2023-04-03T04:03:52;10.03;;;7.60;;
21060;SDS011;10689;50.836;3.266;2023-04-03T04:10:17;9.57;;;7.83;;
21060;SDS011;10689;50.836;3.266;2023-04-03T04:13:34;11.20;;;8.10;;
21060;SDS011;10689;50.836;3.266;2023-04-03T04:16:15;10.83;;;8.63;;
21060;SDS011;10689;50.836;3.266;2023-04-03T04:19:33;8.23;;;7.30;;
21060;SDS011;10689;50.836;3.266;2023-04-03T04:22:32;9.60;;;7.90;;
21060;SDS011;10689;50.836;3.266;2023-04-03T04:25:26;9.87;;;8.40;;
21060;SDS011;10689;50.836;3.266;2023-04-03T04:31:13;9.10;;;7.97;;
21060;SDS011;10689;50.836;3.266;2023-04-03T04:34:50;11.07;;;8.50;;
21060;SDS011;10689;50.836;3.266;2023-04-03T04:40:30;11.67;;;8.67;;
21060;SDS011;10689;50.836;3.266;2023-04-03T04:43:42;9.23;;;7.63;;
21060;SDS011;10689;50.836;3.266;2023-04-03T04:53:02;11.53;;;8.97;;
21060;SDS011;10689;50.836;3.266;2023-04-03T04:55:44;9.73;;;7.97;;
21060;SDS011;10689;50.836;3.266;2023-04-03T04:58:43;9.83;;;7.50;;
21060;SDS011;10689;50.836;3.266;2023-04-03T05:01:26;8.43;;;7.27;;
21060;SDS011;10689;50.836;3.266;2023-04-03T05:04:08;9.07;;;7.83;;
21060;SDS011;10689;50.836;3.266;2023-04-03T05:06:51;10.70;;;8.43;;
21060;SDS011;10689;50.836;3.266;2023-04-03T05:09:29;8.37;;;6.63;;
21060;SDS011;10689;50.836;3.266;2023-04-03T05:12:11;14.87;;;8.10;;
21060;SDS011;10689;50.836;3.266;2023-04-03T05:15:03;7.90;;;6.37;;
21060;SDS011;10689;50.836;3.266;2023-04-03T05:17:37;9.43;;;7.03;;
21060;SDS011;10689;50.836;3.266;2023-04-03T05:20:26;12.20;;;8.07;;
21060;SDS011;10689;50.836;3.266;2023-04-03T05:29:58;7.63;;;5.70;;
21060;SDS011;10689;50.836;3.266;2023-04-03T05:32:32;8.10;;;6.13;;
21060;SDS011;10689;50.836;3.266;2023-04-03T05:35:22;7.43;;;5.97;;
21060;SDS011;10689;50.836;3.266;2023-04-03T05:41:31;7.03;;;5.83;;
21060;SDS011;10689;50.836;3.266;2023-04-03T05:44:45;7.67;;;5.83;;
21060;SDS011;10689;50.836;3.266;2023-04-03T05:47:57;7.93;;;6.60;;
21060;SDS011;10689;50.836;3.266;2023-04-03T05:50:59;8.00;;;5.80;;
21060;SDS011;10689;50.836;3.266;2023-04-03T06:11:11;8.17;;;5.73;;
21060;SDS011;10689;50.836;3.266;2023-04-03T06:17:24;7.70;;;6.93;;
21060;SDS011;10689;50.836;3.266;2023-04-03T06:19:50;6.90;;;5.77;;
21060;SDS011;10689;50.836;3.266;2023-04-03T06:22:52;7.20;;;5.43;;
21060;SDS011;10689;50.836;3.266;2023-04-03T06:26:00;6.37;;;5.70;;
21060;SDS011;10689;50.836;3.266;2023-04-03T06:28:36;7.17;;;5.87;;
21060;SDS011;10689;50.836;3.266;2023-04-03T06:31:22;7.57;;;6.07;;
21060;SDS011;10689;50.836;3.266;2023-04-03T06:33:58;8.57;;;5.60;;
21060;SDS011;10689;50.836;3.266;2023-04-03T06:36:33;6.77;;;6.07;;
21060;SDS011;10689;50.836;3.266;2023-04-03T06:42:34;5.97;;;5.33;;
21060;SDS011;10689;50.836;3.266;2023-04-03T06:49:07;8.67;;;6.27;;
21060;SDS011;10689;50.836;3.266;2023-04-03T06:52:37;7.17;;;6.13;;
21060;SDS011;10689;50.836;3.266;2023-04-03T06:55:10;7.70;;;6.23;;
21060;SDS011;10689;50.836;3.266;2023-04-03T06:57:47;7.30;;;5.90;;
21060;SDS011;10689;50.836;3.266;2023-04-03T07:04:00;5.90;;;5.17;;
21060;SDS011;10689;50.836;3.266;2023-04-03T07:07:06;8.83;;;5.73;;
21060;SDS011;10689;50.836;3.266;2023-04-03T07:12:48;6.47;;;5.87;;
21060;SDS011;10689;50.836;3.266;2023-04-03T07:15:51;7.07;;;5.30;;
21060;SDS011;10689;50.836;3.266;2023-04-03T07:18:30;6.77;;;5.20;;
21060;SDS011;10689;50.836;3.266;2023-04-03T07:21:40;5.43;;;4.37;;
21060;SDS011;10689;50.836;3.266;2023-04-03T07:28:19;6.93;;;5.63;;
21060;SDS011;10689;50.836;3.266;2023-04-03T07:31:04;4.93;;;4.43;;
21060;SDS011;10689;50.836;3.266;2023-04-03T07:33:48;5.97;;;4.40;;
21060;SDS011;10689;50.836;3.266;2023-04-03T07:36:41;7.27;;;4.73;;
21060;SDS011;10689;50.836;3.266;2023-04-03T07:39:16;4.33;;;3.93;;
21060;SDS011;10689;50.836;3.266;2023-04-03T07:42:08;4.33;;;3.53;;
21060;SDS011;10689;50.836;3.266;2023-04-03T07:45:03;5.37;;;4.13;;
21060;SDS011;10689;50.836;3.266;2023-04-03T07:47:59;3.63;;;3.33;;
21060;SDS011;10689;50.836;3.266;2023-04-03T07:50:39;5.70;;;3.93;;
21060;SDS011;10689;50.836;3.266;2023-04-03T07:53:25;6.20;;;3.57;;
21060;SDS011;10689;50.836;3.266;2023-04-03T07:56:01;4.90;;;3.47;;
21060;SDS011;10689;50.836;3.266;2023-04-03T07:58:36;3.03;;;2.73;;
21060;SDS011;10689;50.836;3.266;2023-04-03T08:01:11;3.73;;;3.37;;
21060;SDS011;10689;50.836;3.266;2023-04-03T08:10:08;3.67;;;3.03;;
21060;SDS011;10689;50.836;3.266;2023-04-03T08:12:40;3.97;;;2.90;;
21060;SDS011;10689;50.836;3.266;2023-04-03T08:25:14;3.47;;;2.87;;
21060;SDS011;10689;50.836;3.266;2023-04-03T08:28:18;3.13;;;2.83;;
21060;SDS011;10689;50.836;3.266;2023-04-03T08:30:47;3.40;;;3.10;;
21060;SDS011;10689;50.836;3.266;2023-04-03T08:33:32;3.43;;;3.13;;
21060;SDS011;10689;50.836;3.266;2023-04-03T08:39:45;6.23;;;3.60;;
21060;SDS011;10689;50.836;3.266;2023-04-03T08:45:10;4.43;;;3.60;;
21060;SDS011;10689;50.836;3.266;2023-04-03T08:48:35;4.20;;;3.73;;
21060;SDS011;10689;50.836;3.266;2023-04-03T08:58:53;5.07;;;4.23;;
21060;SDS011;10689;50.836;3.266;2023-04-03T09:01:51;4.80;;;3.60;;
21060;SDS011;10689;50.836;3.266;2023-04-03T09:04:41;6.40;;;3.87;;
21060;SDS011;10689;50.836;3.266;2023-04-03T09:10:01;3.50;;;3.20;;
21060;SDS011;10689;50.836;3.266;2023-04-03T09:12:39;5.67;;;3.93;;
21060;SDS011;10689;50.836;3.266;2023-04-03T09:16:10;6.50;;;3.67;;
21060;SDS011;10689;50.836;3.266;2023-04-03T09:22:31;6.03;;;3.03;;
21060;SDS011;10689;50.836;3.266;2023-04-03T09:27:47;2.83;;;2.57;;
21060;SDS011;10689;50.836;3.266;2023-04-03T09:30:23;3.90;;;3.50;;
21060;SDS011;10689;50.836;3.266;2023-04-03T09:32:51;6.33;;;3.27;;
21060;SDS011;10689;50.836;3.266;2023-04-03T09:35:50;3.17;;;2.83;;
21060;SDS011;10689;50.836;3.266;2023-04-03T09:39:02;4.03;;;3.57;;
21060;SDS011;10689;50.836;3.266;2023-04-03T09:41:38;4.03;;;3.57;;
21060;SDS011;10689;50.836;3.266;2023-04-03T09:44:28;3.40;;;3.13;;
21060;SDS011;10689;50.836;3.266;2023-04-03T09:47:26;2.80;;;2.53;;
21060;SDS011;10689;50.836;3.266;2023-04-03T09:52:53;3.63;;;2.93;;
21060;SDS011;10689;50.836;3.266;2023-04-03T09:55:41;3.33;;;3.03;;
21060;SDS011;10689;50.836;3.266;2023-04-03T09:58:23;4.17;;;2.37;;
21060;SDS011;10689;50.836;3.266;2023-04-03T10:04:44;2.60;;;2.10;;
21060;SDS011;10689;50.836;3.266;2023-04-03T10:10:19;2.20;;;2.00;;
21060;SDS011;10689;50.836;3.266;2023-04-03T10:13:03;3.17;;;2.60;;
21060;SDS011;10689;50.836;3.266;2023-04-03T10:15:43;2.67;;;2.20;;
21060;SDS011;10689;50.836;3.266;2023-04-03T10:34:14;1.93;;;1.47;;
21060;SDS011;10689;50.836;3.266;2023-04-03T10:37:26;2.87;;;1.77;;
21060;SDS011;10689;50.836;3.266;2023-04-03T10:58:34;1.60;;;1.50;;
21060;SDS011;10689;50.836;3.266;2023-04-03T11:01:44;4.47;;;1.57;;
21060;SDS011;10689;50.836;3.266;2023-04-03T11:04:53;3.27;;;1.90;;
21060;SDS011;10689;50.836;3.266;2023-04-03T11:07:57;3.43;;;1.73;;
21060;SDS011;10689;50.836;3.266;2023-04-03T11:14:43;5.60;;;1.97;;
21060;SDS011;10689;50.836;3.266;2023-04-03T11:20:41;1.77;;;1.40;;
21060;SDS011;10689;50.836;3.266;2023-04-03T11:29:52;2.77;;;2.00;;
21060;SDS011;10689;50.836;3.266;2023-04-03T11:35:27;2.23;;;1.53;;
21060;SDS011;10689;50.836;3.266;2023-04-03T11:38:31;3.10;;;1.70;;
21060;SDS011;10689;50.836;3.266;2023-04-03T11:41:10;3.43;;;1.60;;
21060;SDS011;10689;50.836;3.266;2023-04-03T11:46:58;3.87;;;1.87;;
21060;SDS011;10689;50.836;3.266;2023-04-03T11:49:55;3.90;;;1.57;;
21060;SDS011;10689;50.836;3.266;2023-04-03T11:59:36;2.70;;;1.73;;
21060;SDS011;10689;50.836;3.266;2023-04-03T12:05:27;3.40;;;2.80;;
21060;SDS011;10689;50.836;3.266;2023-04-03T12:11:50;4.23;;;2.00;;
21060;SDS011;10689;50.836;3.266;2023-04-03T12:24:52;1.47;;;1.33;;
21060;SDS011;10689;50.836;3.266;2023-04-03T12:30:51;1.70;;;1.17;;
21060;SDS011;10689;50.836;3.266;2023-04-03T12:45:41;2.13;;;0.97;;
21060;SDS011;10689;50.836;3.266;2023-04-03T12:51:40;3.73;;;1.57;;
21060;SDS011;10689;50.836;3.266;2023-04-03T12:54:48;2.20;;;0.93;;
21060;SDS011;10689;50.836;3.266;2023-04-03T13:01:16;1.93;;;1.17;;
21060;SDS011;10689;50.836;3.266;2023-04-03T13:04:00;1.27;;;1.10;;
21060;SDS011;10689;50.836;3.266;2023-04-03T13:13:17;1.63;;;1.23;;
21060;SDS011;10689;50.836;3.266;2023-04-03T13:19:31;1.20;;;1.00;;
21060;SDS011;10689;50.836;3.266;2023-04-03T13:32:42;1.60;;;1.50;;
21060;SDS011;10689;50.836;3.266;2023-04-03T13:45:29;1.43;;;1.00;;
21060;SDS011;10689;50.836;3.266;2023-04-03T13:48:44;1.20;;;0.98;;
21060;SDS011;10689;50.836;3.266;2023-04-03T13:55:35;1.85;;;1.50;;
21060;SDS011;10689;50.836;3.266;2023-04-03T13:58:29;4.07;;;1.42;;
21060;SDS011;10689;50.836;3.266;2023-04-03T14:01:09;2.88;;;1.65;;
21060;SDS011;10689;50.836;3.266;2023-04-03T14:07:18;2.28;;;1.40;;
21060;SDS011;10689;50.836;3.266;2023-04-03T14:09:46;1.80;;;1.10;;
21060;SDS011;10689;50.836;3.266;2023-04-03T14:15:35;3.45;;;1.00;;
21060;SDS011;10689;50.836;3.266;2023-04-03T14:31:12;2.63;;;1.23;;
21060;SDS011;10689;50.836;3.266;2023-04-03T14:34:47;1.20;;;0.90;;
21060;SDS011;10689;50.836;3.266;2023-04-03T14:56:28;1.10;;;1.00;;
21060;SDS011;10689;50.836;3.266;2023-04-03T15:04:48;1.95;;;1.10;;
21060;SDS011;10689;50.836;3.266;2023-04-03T15:07:55;2.20;;;0.95;;
21060;SDS011;10689;50.836;3.266;2023-04-03T15:11:08;0.77;;;0.77;;
21060;SDS011;10689;50.836;3.266;2023-04-03T15:14:32;1.15;;;0.90;;
21060;SDS011;10689;50.836;3.266;2023-04-03T15:20:44;1.25;;;0.90;;
21060;SDS011;10689;50.836;3.266;2023-04-03T15:23:22;2.97;;;1.00;;
21060;SDS011;10689;50.836;3.266;2023-04-03T15:26:00;4.90;;;1.55;;
21060;SDS011;10689;50.836;3.266;2023-04-03T15:28:53;2.05;;;0.80;;
21060;SDS011;10689;50.836;3.266;2023-04-03T15:31:42;1.20;;;1.10;;
21060;SDS011;10689;50.836;3.266;2023-04-03T15:38:06;1.00;;;1.00;;
21060;SDS011;10689;50.836;3.266;2023-04-03T15:40:59;1.20;;;0.88;;
21060;SDS011;10689;50.836;3.266;2023-04-03T15:50:52;1.30;;;1.20;;
21060;SDS011;10689;50.836;3.266;2023-04-03T15:57:11;1.00;;;0.90;;
21060;SDS011;10689;50.836;3.266;2023-04-03T15:59:42;0.82;;;0.82;;
21060;SDS011;10689;50.836;3.266;2023-04-03T16:02:08;0.80;;;0.80;;
21060;SDS011;10689;50.836;3.266;2023-04-03T16:08:19;1.90;;;0.97;;
21060;SDS011;10689;50.836;3.266;2023-04-03T16:10:47;0.80;;;0.80;;
21060;SDS011;10689;50.836;3.266;2023-04-03T16:14:08;2.17;;;1.30;;
21060;SDS011;10689;50.836;3.266;2023-04-03T16:17:12;1.17;;;0.80;;
21060;SDS011;10689;50.836;3.266;2023-04-03T16:20:04;2.87;;;1.20;;
21060;SDS011;10689;50.836;3.266;2023-04-03T16:22:35;2.43;;;0.90;;
21060;SDS011;10689;50.836;3.266;2023-04-03T16:25:01;1.20;;;1.10;;
21060;SDS011;10689;50.836;3.266;2023-04-03T16:27:45;1.03;;;0.90;;
21060;SDS011;10689;50.836;3.266;2023-04-03T16:30:21;1.20;;;1.00;;
21060;SDS011;10689;50.836;3.266;2023-04-03T16:32:47;1.17;;;1.07;;
21060;SDS011;10689;50.836;3.266;2023-04-03T16:35:13;2.40;;;0.93;;
21060;SDS011;10689;50.836;3.266;2023-04-03T16:37:45;1.43;;;1.10;;
21060;SDS011;10689;50.836;3.266;2023-04-03T16:40:20;2.83;;;1.10;;
21060;SDS011;10689;50.836;3.266;2023-04-03T16:42:54;1.57;;;1.47;;
21060;SDS011;10689;50.836;3.266;2023-04-03T16:45:26;5.00;;;0.93;;
21060;SDS011;10689;50.836;3.266;2023-04-03T16:48:00;1.27;;;1.00;;
21060;SDS011;10689;50.836;3.266;2023-04-03T16:50:26;1.17;;;1.03;;
21060;SDS011;10689;50.836;3.266;2023-04-03T16:52:52;1.40;;;1.20;;
21060;SDS011;10689;50.836;3.266;2023-04-03T16:55:21;9.47;;;1.57;;
21060;SDS011;10689;50.836;3.266;2023-04-03T16:57:47;7.40;;;1.00;;
21060;SDS011;10689;50.836;3.266;2023-04-03T17:00:18;1.27;;;1.17;;
21060;SDS011;10689;50.836;3.266;2023-04-03T17:02:46;4.33;;;1.80;;
21060;SDS011;10689;50.836;3.266;2023-04-03T17:05:15;1.83;;;1.60;;
21060;SDS011;10689;50.836;3.266;2023-04-03T17:08:07;3.13;;;1.90;;
21060;SDS011;10689;50.836;3.266;2023-04-03T17:10:52;3.27;;;1.30;;
21060;SDS011;10689;50.836;3.266;2023-04-03T17:13:47;2.03;;;1.53;;
21060;SDS011;10689;50.836;3.266;2023-04-03T17:16:33;1.60;;;0.93;;
21060;SDS011;10689;50.836;3.266;2023-04-03T17:19:10;1.47;;;1.00;;
21060;SDS011;10689;50.836;3.266;2023-04-03T17:21:41;0.97;;;0.93;;
21060;SDS011;10689;50.836;3.266;2023-04-03T17:24:14;4.17;;;1.57;;
21060;SDS011;10689;50.836;3.266;2023-04-03T17:26:43;0.87;;;0.87;;
21060;SDS011;10689;50.836;3.266;2023-04-03T17:29:20;3.67;;;1.40;;
21060;SDS011;10689;50.836;3.266;2023-04-03T17:32:05;1.93;;;1.30;;
21060;SDS011;10689;50.836;3.266;2023-04-03T17:34:45;1.97;;;0.80;;
21060;SDS011;10689;50.836;3.266;2023-04-03T17:40:46;1.80;;;1.50;;
21060;SDS011;10689;50.836;3.266;2023-04-03T17:46:09;2.60;;;1.20;;
21060;SDS011;10689;50.836;3.266;2023-04-03T17:48:44;3.53;;;1.30;;
21060;SDS011;10689;50.836;3.266;2023-04-03T17:51:28;1.50;;;1.40;;
21060;SDS011;10689;50.836;3.266;2023-04-03T17:54:08;1.10;;;1.00;;
21060;SDS011;10689;50.836;3.266;2023-04-03T17:56:52;3.90;;;1.50;;
21060;SDS011;10689;50.836;3.266;2023-04-03T17:59:17;1.53;;;1.20;;
21060;SDS011;10689;50.836;3.266;2023-04-03T18:01:44;1.77;;;1.10;;
21060;SDS011;10689;50.836;3.266;2023-04-03T18:04:11;2.33;;;1.30;;
21060;SDS011;10689;50.836;3.266;2023-04-03T18:09:12;1.57;;;1.30;;
21060;SDS011;10689;50.836;3.266;2023-04-03T18:11:43;1.40;;;1.20;;
21060;SDS011;10689;50.836;3.266;2023-04-03T18:14:12;1.37;;;1.27;;
21060;SDS011;10689;50.836;3.266;2023-04-03T18:28:00;1.33;;;1.10;;
21060;SDS011;10689;50.836;3.266;2023-04-03T18:30:57;1.40;;;1.30;;
21060;SDS011;10689;50.836;3.266;2023-04-03T18:37:26;4.17;;;1.80;;
21060;SDS011;10689;50.836;3.266;2023-04-03T18:39:59;1.87;;;1.60;;
21060;SDS011;10689;50.836;3.266;2023-04-03T18:43:11;4.80;;;1.70;;
21060;SDS011;10689;50.836;3.266;2023-04-03T18:46:07;2.17;;;1.40;;
21060;SDS011;10689;50.836;3.266;2023-04-03T18:52:07;2.70;;;1.73;;
21060;SDS011;10689;50.836;3.266;2023-04-03T19:05:06;2.73;;;1.90;;
21060;SDS011;10689;50.836;3.266;2023-04-03T19:07:43;1.50;;;1.30;;
21060;SDS011;10689;50.836;3.266;2023-04-03T19:11:09;3.60;;;1.53;;
21060;SDS011;10689;50.836;3.266;2023-04-03T19:23:54;1.37;;;1.27;;
21060;SDS011;10689;50.836;3.266;2023-04-03T19:30:22;2.23;;;1.40;;
21060;SDS011;10689;50.836;3.266;2023-04-03T19:32:58;2.47;;;1.70;;
21060;SDS011;10689;50.836;3.266;2023-04-03T19:42:22;1.53;;;1.43;;
21060;SDS011;10689;50.836;3.266;2023-04-03T19:45:16;3.30;;;1.70;;
21060;SDS011;10689;50.836;3.266;2023-04-03T19:51:26;2.00;;;1.80;;
21060;SDS011;10689;50.836;3.266;2023-04-03T19:58:01;2.10;;;1.90;;
21060;SDS011;10689;50.836;3.266;2023-04-03T20:00:28;2.40;;;1.20;;
21060;SDS011;10689;50.836;3.266;2023-04-03T20:03:16;4.07;;;1.80;;
21060;SDS011;10689;50.836;3.266;2023-04-03T20:11:42;2.33;;;2.07;;
21060;SDS011;10689;50.836;3.266;2023-04-03T20:14:28;1.87;;;1.73;;
21060;SDS011;10689;50.836;3.266;2023-04-03T20:17:20;4.63;;;2.20;;
21060;SDS011;10689;50.836;3.266;2023-04-03T20:19:51;2.27;;;2.07;;
21060;SDS011;10689;50.836;3.266;2023-04-03T20:22:28;2.77;;;1.70;;
21060;SDS011;10689;50.836;3.266;2023-04-03T20:25:26;5.33;;;2.40;;
21060;SDS011;10689;50.836;3.266;2023-04-03T20:28:28;2.77;;;2.10;;
21060;SDS011;10689;50.836;3.266;2023-04-03T20:31:22;2.10;;;1.83;;
21060;SDS011;10689;50.836;3.266;2023-04-03T20:33:52;2.37;;;2.17;;
21060;SDS011;10689;50.836;3.266;2023-04-03T20:36:19;2.73;;;2.10;;
21060;SDS011;10689;50.836;3.266;2023-04-03T20:38:46;2.53;;;2.03;;
21060;SDS011;10689;50.836;3.266;2023-04-03T20:41:12;3.93;;;2.27;;
21060;SDS011;10689;50.836;3.266;2023-04-03T20:43:39;2.37;;;2.10;;
21060;SDS011;10689;50.836;3.266;2023-04-03T20:46:06;2.93;;;2.20;;
21060;SDS011;10689;50.836;3.266;2023-04-03T20:48:33;2.33;;;1.80;;
21060;SDS011;10689;50.836;3.266;2023-04-03T20:51:06;2.97;;;1.73;;
21060;SDS011;10689;50.836;3.266;2023-04-03T20:53:36;2.57;;;1.80;;
21060;SDS011;10689;50.836;3.266;2023-04-03T20:56:02;2.97;;;2.40;;
21060;SDS011;10689;50.836;3.266;2023-04-03T20:58:29;2.07;;;1.87;;
21060;SDS011;10689;50.836;3.266;2023-04-03T21:00:57;4.17;;;2.17;;
21060;SDS011;10689;50.836;3.266;2023-04-03T21:03:23;4.60;;;2.23;;
21060;SDS011;10689;50.836;3.266;2023-04-03T21:20:01;3.83;;;2.17;;
21060;SDS011;10689;50.836;3.266;2023-04-03T21:22:28;3.60;;;2.27;;
21060;SDS011;10689;50.836;3.266;2023-04-03T21:24:54;2.60;;;1.77;;
21060;SDS011;10689;50.836;3.266;2023-04-03T21:27:21;5.27;;;2.70;;
21060;SDS011;10689;50.836;3.266;2023-04-03T21:29:47;7.50;;;2.37;;
21060;SDS011;10689;50.836;3.266;2023-04-03T21:32:13;2.77;;;2.27;;
21060;SDS011;10689;50.836;3.266;2023-04-03T21:34:38;7.43;;;4.03;;
21060;SDS011;10689;50.836;3.266;2023-04-03T21:37:07;11.77;;;5.03;;
21060;SDS011;10689;50.836;3.266;2023-04-03T21:39:33;8.97;;;4.60;;
21060;SDS011;10689;50.836;3.266;2023-04-03T21:41:59;8.27;;;4.33;;
21060;SDS011;10689;50.836;3.266;2023-04-03T21:44:24;5.87;;;3.20;;
21060;SDS011;10689;50.836;3.266;2023-04-03T21:46:53;3.07;;;2.33;;
21060;SDS011;10689;50.836;3.266;2023-04-03T21:49:23;6.93;;;2.50;;
21060;SDS011;10689;50.836;3.266;2023-04-03T21:51:49;2.70;;;1.67;;
21060;SDS011;10689;50.836;3.266;2023-04-03T21:54:15;2.63;;;1.83;;
21060;SDS011;10689;50.836;3.266;2023-04-03T21:56:42;6.73;;;2.30;;
21060;SDS011;10689;50.836;3.266;2023-04-03T21:59:08;4.13;;;1.97;;
21060;SDS011;10689;50.836;3.266;2023-04-03T22:01:34;2.93;;;2.10;;
21060;SDS011;10689;50.836;3.266;2023-04-03T22:04:01;4.10;;;2.03;;
21060;SDS011;10689;50.836;3.266;2023-04-03T22:06:27;2.17;;;1.73;;
21060;SDS011;10689;50.836;3.266;2023-04-03T22:08:53;1.90;;;1.80;;
21060;SDS011;10689;50.836;3.266;2023-04-03T22:11:21;4.67;;;2.47;;
21060;SDS011;10689;50.836;3.266;2023-04-03T22:13:50;5.63;;;2.47;;
21060;SDS011;10689;50.836;3.266;2023-04-03T22:16:17;3.97;;;2.27;;
21060;SDS011;10689;50.836;3.266;2023-04-03T22:18:43;3.23;;;2.13;;
21060;SDS011;10689;50.836;3.266;2023-04-03T22:21:09;5.10;;;2.13;;
21060;SDS011;10689;50.836;3.266;2023-04-03T22:23:35;5.13;;;2.10;;
21060;SDS011;10689;50.836;3.266;2023-04-03T22:28:29;2.63;;;1.93;;
21060;SDS011;10689;50.836;3.266;2023-04-03T22:30:59;2.17;;;1.90;;
21060;SDS011;10689;50.836;3.266;2023-04-03T22:33:29;2.57;;;1.50;;
21060;SDS011;10689;50.836;3.266;2023-04-03T22:35:56;3.23;;;2.40;;
21060;SDS011;10689;50.836;3.266;2023-04-03T22:38:22;3.87;;;1.87;;
21060;SDS011;10689;50.836;3.266;2023-04-03T22:40:56;1.87;;;1.77;;
21060;SDS011;10689;50.836;3.266;2023-04-03T22:43:26;1.87;;;1.47;;
21060;SDS011;10689;50.836;3.266;2023-04-03T22:45:53;2.13;;;1.87;;
21060;SDS011;10689;50.836;3.266;2023-04-03T22:48:19;2.03;;;1.50;;
21060;SDS011;10689;50.836;3.266;2023-04-03T22:50:45;1.50;;;1.40;;
21060;SDS011;10689;50.836;3.266;2023-04-03T22:53:12;2.67;;;1.97;;
21060;SDS011;10689;50.836;3.266;2023-04-03T22:55:39;3.37;;;1.83;;
21060;SDS011;10689;50.836;3.266;2023-04-03T22:58:05;2.73;;;1.90;;
21060;SDS011;10689;50.836;3.266;2023-04-03T23:00:31;5.43;;;2.27;;
21060;SDS011;10689;50.836;3.266;2023-04-03T23:02:57;1.87;;;1.77;;
21060;SDS011;10689;50.836;3.266;2023-04-03T23:05:23;2.50;;;1.53;;
21060;SDS011;10689;50.836;3.266;2023-04-03T23:07:49;2.10;;;1.90;;
21060;SDS011;10689;50.836;3.266;2023-04-03T23:10:14;2.00;;;1.50;;
21060;SDS011;10689;50.836;3.266;2023-04-03T23:12:42;3.73;;;1.83;;
21060;SDS011;10689;50.836;3.266;2023-04-03T23:15:07;4.33;;;1.90;;
21060;SDS011;10689;50.836;3.266;2023-04-03T23:17:37;3.47;;;2.10;;
21060;SDS011;10689;50.836;3.266;2023-04-03T23:20:03;2.43;;;1.87;;
21060;SDS011;10689;50.836;3.266;2023-04-03T23:22:30;3.97;;;2.43;;
21060;SDS011;10689;50.836;3.266;2023-04-03T23:24:56;4.30;;;2.10;;
21060;SDS011;10689;50.836;3.266;2023-04-03T23:27:22;3.67;;;1.80;;
21060;SDS011;10689;50.836;3.266;2023-04-03T23:29:48;4.13;;;2.13;;
21060;SDS011;10689;50.836;3.266;2023-04-03T23:32:13;2.50;;;1.47;;
21060;SDS011;10689;50.836;3.266;2023-04-03T23:34:39;1.53;;;1.30;;
21060;SDS011;10689;50.836;3.266;2023-04-03T23:37:06;2.43;;;1.80;;
21060;SDS011;10689;50.836;3.266;2023-04-03T23:39:35;3.43;;;2.10;;
21060;SDS011;10689;50.836;3.266;2023-04-03T23:42:01;4.60;;;2.00;;
21060;SDS011;10689;50.836;3.266;2023-04-03T23:44:27;3.17;;;1.80;;
21060;SDS011;10689;50.836;3.266;2023-04-03T23:46:53;2.30;;;1.93;;
21060;SDS011;10689;50.836;3.266;2023-04-03T23:49:21;1.90;;;1.63;;
21060;SDS011;10689;50.836;3.266;2023-04-03T23:51:46;2.27;;;1.63;;
21060;SDS011;10689;50.836;3.266;2023-04-03T23:54:13;2.07;;;1.77;;
21060;SDS011;10689;50.836;3.266;2023-04-03T23:56:42;3.37;;;1.90;;
21060;SDS011;10689;50.836;3.266;2023-04-03T23:59:08;4.10;;;1.80;;
